createdAt,value
2022-08-22T00:02:28.081Z,1.70
2022-08-22T00:03:10.729Z,2.00
2022-08-22T00:05:10.199Z,2.05
2022-08-22T00:07:56.728Z,1.48
2022-08-22T00:11:25.698Z,1.48
2022-08-22T00:14:34.906Z,1.80
2022-08-22T00:17:40.993Z,1.98
2022-08-22T00:20:14.600Z,1.45
2022-08-22T00:22:51.710Z,3.30
2022-08-22T00:25:40.141Z,1.67
2022-08-22T00:28:36.963Z,1.63
2022-08-22T00:31:21.983Z,1.65
2022-08-22T00:34:09.005Z,2.15
2022-08-22T00:37:02.373Z,2.20
2022-08-22T00:39:39.086Z,1.90
2022-08-22T00:42:45.492Z,2.08
2022-08-22T00:45:42.528Z,1.75
2022-08-22T00:48:39.076Z,2.28
2022-08-22T00:52:09.374Z,1.92
2022-08-22T00:55:09.629Z,1.80
2022-08-22T00:58:05.612Z,1.98
2022-08-22T01:00:42.833Z,1.67
2022-08-22T01:03:46.607Z,1.13
2022-08-22T01:06:45.935Z,1.75
2022-08-22T01:09:34.549Z,1.63
2022-08-22T01:12:23.706Z,1.50
2022-08-22T01:15:05.937Z,1.58
2022-08-22T01:17:51.761Z,1.70
2022-08-22T01:20:24.397Z,1.85
2022-08-22T01:23:12.277Z,1.85
2022-08-22T01:26:33.637Z,2.00
2022-08-22T01:29:50.019Z,1.63
2022-08-22T01:32:43.149Z,1.90
2022-08-22T01:36:08.797Z,1.67
2022-08-22T01:39:19.809Z,1.42
2022-08-22T01:42:15.326Z,1.85
2022-08-22T01:45:17.838Z,2.00
2022-08-22T01:47:54.563Z,1.88
2022-08-22T01:50:33.238Z,1.70
2022-08-22T01:53:18.677Z,1.70
2022-08-22T01:56:06.708Z,1.90
2022-08-22T01:58:38.935Z,1.88
2022-08-22T02:01:28.275Z,2.03
2022-08-22T02:04:47.772Z,1.70
2022-08-22T02:07:32.361Z,2.47
2022-08-22T02:10:26.864Z,1.67
2022-08-22T02:13:44.021Z,1.58
2022-08-22T02:16:34.060Z,2.05
2022-08-22T02:19:15.759Z,1.38
2022-08-22T02:22:29.833Z,1.75
2022-08-22T02:25:09.046Z,1.80
2022-08-22T02:28:10.836Z,1.92
2022-08-22T02:30:54.295Z,1.83
2022-08-22T02:33:43.152Z,2.13
2022-08-22T02:36:40.690Z,1.67
2022-08-22T02:39:27.549Z,2.20
2022-08-22T02:42:35.755Z,2.42
2022-08-22T02:45:40.557Z,2.00
2022-08-22T02:48:27.732Z,1.90
2022-08-22T02:51:27.728Z,2.50
2022-08-22T02:54:24.662Z,1.80
2022-08-22T02:57:39.296Z,2.35
2022-08-22T03:00:25.045Z,2.08
2022-08-22T03:03:06.641Z,2.42
2022-08-22T03:05:36.331Z,1.87
2022-08-22T03:08:13.866Z,1.98
2022-08-22T03:10:50.045Z,1.88
2022-08-22T03:13:27.022Z,1.85
2022-08-22T03:16:04.933Z,2.03
2022-08-22T03:18:56.792Z,2.20
2022-08-22T03:21:35.205Z,1.73
2022-08-22T03:24:26.042Z,1.52
2022-08-22T03:27:08.357Z,2.00
2022-08-22T03:29:42.018Z,2.03
2022-08-22T03:32:23.128Z,2.47
2022-08-22T03:34:59.369Z,1.95
2022-08-22T03:37:41.426Z,2.05
2022-08-22T03:40:20.136Z,2.20
2022-08-22T03:43:14.948Z,1.88
2022-08-22T03:46:49.806Z,2.30
2022-08-22T03:49:50.776Z,2.63
2022-08-22T03:53:00.559Z,1.85
2022-08-22T03:55:45.363Z,2.30
2022-08-22T04:01:39.720Z,1.77
2022-08-22T04:04:58.106Z,1.67
2022-08-22T04:07:42.786Z,1.95
2022-08-22T04:13:49.904Z,1.80
2022-08-22T04:16:54.082Z,2.00
2022-08-22T04:20:01.337Z,2.50
2022-08-22T04:23:00.417Z,1.73
2022-08-22T04:25:36.246Z,1.80
2022-08-22T04:28:31.497Z,1.58
2022-08-22T04:31:17.220Z,1.88
2022-08-22T04:33:52.790Z,2.15
2022-08-22T04:36:31.297Z,1.88
2022-08-22T04:39:19.318Z,2.40
2022-08-22T04:41:54.048Z,1.55
2022-08-22T04:44:36.492Z,1.75
2022-08-22T04:47:20.516Z,1.58
2022-08-22T04:50:23.686Z,2.10
2022-08-22T04:53:25.693Z,1.80
2022-08-22T04:56:07.771Z,2.00
2022-08-22T04:58:46.686Z,1.75
2022-08-22T05:01:43.240Z,2.13
2022-08-22T05:04:42.135Z,2.00
2022-08-22T05:07:18.606Z,1.80
2022-08-22T05:09:56.327Z,2.20
2022-08-22T05:12:33.442Z,2.03
2022-08-22T05:15:44.291Z,2.40
2022-08-22T05:18:30.072Z,2.08
2022-08-22T05:21:02.493Z,2.90
2022-08-22T05:23:43.152Z,1.70
2022-08-22T05:26:13.690Z,1.98
2022-08-22T05:28:52.494Z,2.55
2022-08-22T05:31:29.575Z,3.47
2022-08-22T05:34:06.968Z,3.88
2022-08-22T05:36:40.142Z,5.43
2022-08-22T05:39:25.252Z,3.05
2022-08-22T05:41:58.119Z,2.15
2022-08-22T05:44:37.596Z,2.10
2022-08-22T05:47:46.609Z,1.95
2022-08-22T05:50:33.596Z,1.90
2022-08-22T05:53:10.687Z,1.60
2022-08-22T05:56:02.818Z,2.22
2022-08-22T05:58:56.743Z,1.85
2022-08-22T06:01:55.287Z,2.28
2022-08-22T06:04:50.048Z,2.03
2022-08-22T06:07:28.026Z,2.47
2022-08-22T06:10:13.815Z,1.60
2022-08-22T06:12:52.153Z,1.92
2022-08-22T06:15:34.566Z,1.60
2022-08-22T06:18:10.363Z,1.80
2022-08-22T06:20:56.524Z,1.95
2022-08-22T06:23:41.967Z,1.77
2022-08-22T06:26:20.430Z,2.10
2022-08-22T06:28:55.639Z,1.90
2022-08-22T06:31:31.326Z,2.10
2022-08-22T06:34:09.588Z,1.92
2022-08-22T06:36:41.443Z,2.05
2022-08-22T06:39:25.140Z,1.92
2022-08-22T06:42:17.374Z,2.20
2022-08-22T06:44:51.318Z,1.95
2022-08-22T06:47:37.060Z,2.15
2022-08-22T06:50:14.136Z,1.83
2022-08-22T06:53:00.613Z,2.05
2022-08-22T06:55:29.991Z,1.60
2022-08-22T06:58:17.702Z,2.03
2022-08-22T07:00:56.308Z,1.60
2022-08-22T07:03:39.328Z,2.45
2022-08-22T07:06:06.781Z,1.90
2022-08-22T07:08:39.000Z,1.92
2022-08-22T07:11:21.778Z,2.00
2022-08-22T07:13:57.134Z,1.45
2022-08-22T07:16:42.701Z,2.08
2022-08-22T07:19:24.976Z,1.45
2022-08-22T07:21:52.277Z,1.60
2022-08-22T07:24:31.842Z,1.88
2022-08-22T07:27:37.315Z,1.67
2022-08-22T07:30:14.541Z,2.00
2022-08-22T07:33:25.261Z,1.63
2022-08-22T07:35:59.495Z,1.80
2022-08-22T07:38:44.991Z,1.55
2022-08-22T07:41:20.129Z,1.65
2022-08-22T07:43:52.569Z,1.60
2022-08-22T07:47:05.158Z,1.77
2022-08-22T07:50:07.116Z,1.42
2022-08-22T07:52:42.313Z,1.77
2022-08-22T07:55:24.941Z,1.52
2022-08-22T07:58:04.111Z,1.30
2022-08-22T08:00:32.413Z,1.15
2022-08-22T08:03:06.456Z,1.73
2022-08-22T08:05:37.348Z,1.60
2022-08-22T08:08:18.958Z,1.40
2022-08-22T08:10:48.728Z,1.30
2022-08-22T08:13:25.747Z,1.38
2022-08-22T08:15:52.925Z,1.55
2022-08-22T08:18:25.719Z,1.60
2022-08-22T08:20:58.855Z,1.30
2022-08-22T08:23:31.361Z,1.30
2022-08-22T08:26:08.533Z,1.55
2022-08-22T08:28:46.259Z,1.85
2022-08-22T08:31:31.869Z,1.90
2022-08-22T08:34:06.849Z,1.58
2022-08-22T08:36:50.702Z,1.45
2022-08-22T08:39:31.078Z,1.20
2022-08-22T08:42:18.654Z,1.58
2022-08-22T08:45:12.072Z,1.50
2022-08-22T08:48:39.682Z,1.30
2022-08-22T08:51:43.063Z,1.58
2022-08-22T08:54:43.427Z,1.48
2022-08-22T08:57:32.079Z,1.88
2022-08-22T09:00:14.277Z,1.10
2022-08-22T09:06:58.709Z,1.38
2022-08-22T09:10:11.316Z,1.40
2022-08-22T09:13:12.378Z,1.25
2022-08-22T09:16:05.307Z,1.70
2022-08-22T09:18:43.698Z,1.60
2022-08-22T09:21:31.328Z,1.92
2022-08-22T09:24:42.486Z,1.65
2022-08-22T09:27:29.785Z,1.48
2022-08-22T09:30:27.748Z,1.13
2022-08-22T09:33:06.044Z,1.40
2022-08-22T09:36:06.875Z,1.15
2022-08-22T09:38:57.409Z,1.40
2022-08-22T09:42:18.937Z,0.93
2022-08-22T09:45:33.595Z,1.35
2022-08-22T09:48:31.557Z,1.20
2022-08-22T09:51:34.472Z,1.20
2022-08-22T09:54:31.725Z,1.00
2022-08-22T09:57:16.829Z,0.90
2022-08-22T10:00:13.573Z,0.85
2022-08-22T10:03:05.366Z,1.23
2022-08-22T10:05:55.960Z,1.17
2022-08-22T10:08:39.814Z,1.33
2022-08-22T10:11:23.774Z,0.80
2022-08-22T10:14:03.811Z,1.30
2022-08-22T10:17:01.725Z,0.90
2022-08-22T10:19:46.780Z,1.13
2022-08-22T10:22:31.104Z,1.20
2022-08-22T10:25:22.651Z,1.08
2022-08-22T10:28:16.900Z,0.82
2022-08-22T10:31:02.183Z,1.08
2022-08-22T10:33:55.409Z,1.25
2022-08-22T10:36:35.542Z,0.90
2022-08-22T10:39:09.521Z,0.93
2022-08-22T10:42:09.736Z,0.60
2022-08-22T10:44:51.921Z,0.80
2022-08-22T10:47:44.610Z,0.70
2022-08-22T10:50:21.145Z,0.88
2022-08-22T10:53:19.439Z,0.90
2022-08-22T10:56:06.259Z,0.70
2022-08-22T10:58:51.010Z,0.85
2022-08-22T11:01:37.450Z,1.00
2022-08-22T11:04:35.337Z,0.77
2022-08-22T11:07:40.724Z,1.20
2022-08-22T11:10:52.464Z,0.73
2022-08-22T11:13:49.637Z,0.90
2022-08-22T11:16:46.925Z,0.85
2022-08-22T11:19:37.076Z,1.35
2022-08-22T11:22:34.197Z,1.00
2022-08-22T11:25:38.383Z,0.65
2022-08-22T11:28:44.153Z,0.77
2022-08-22T11:32:09.984Z,0.75
2022-08-22T11:34:53.012Z,0.80
2022-08-22T11:37:53.775Z,0.90
2022-08-22T11:40:44.243Z,0.90
2022-08-22T11:43:48.137Z,0.98
2022-08-22T11:46:37.469Z,1.20
2022-08-22T11:49:41.489Z,0.93
2022-08-22T11:53:10.298Z,0.70
2022-08-22T11:55:51.440Z,1.25
2022-08-22T11:58:35.993Z,0.75
2022-08-22T12:04:28.943Z,1.13
2022-08-22T12:07:10.286Z,0.95
2022-08-22T12:09:52.047Z,0.70
2022-08-22T12:12:29.748Z,0.98
2022-08-22T12:15:29.412Z,0.80
2022-08-22T12:18:52.943Z,1.08
2022-08-22T12:22:05.095Z,0.77
2022-08-22T12:25:02.707Z,0.90
2022-08-22T12:27:50.659Z,1.00
2022-08-22T12:30:36.056Z,0.70
2022-08-22T12:33:22.988Z,0.60
2022-08-22T12:36:53.271Z,0.80
2022-08-22T12:40:02.933Z,0.70
2022-08-22T12:43:04.755Z,0.80
2022-08-22T12:46:28.809Z,0.77
2022-08-22T12:49:27.832Z,0.93
2022-08-22T12:52:17.115Z,0.77
2022-08-22T12:55:34.709Z,0.68
2022-08-22T12:58:51.132Z,0.90
2022-08-22T13:01:19.297Z,0.52
2022-08-22T13:04:04.892Z,1.10
2022-08-22T13:06:37.971Z,0.93
2022-08-22T13:09:22.872Z,0.70
2022-08-22T13:12:19.847Z,0.90
2022-08-22T13:14:53.898Z,0.63
2022-08-22T13:17:24.599Z,0.90
2022-08-22T13:20:09.598Z,0.60
2022-08-22T13:25:25.509Z,0.70
2022-08-22T13:28:04.310Z,0.80
2022-08-22T13:30:40.690Z,0.77
2022-08-22T13:33:24.596Z,0.60
2022-08-22T13:36:02.139Z,0.85
2022-08-22T13:38:48.085Z,0.80
2022-08-22T13:41:29.668Z,0.60
2022-08-22T13:44:08.407Z,0.63
2022-08-22T13:46:48.169Z,0.70
2022-08-22T13:49:45.390Z,0.88
2022-08-22T13:52:38.971Z,0.60
2022-08-22T13:55:48.968Z,0.50
2022-08-22T13:58:33.132Z,0.77
2022-08-22T14:01:49.173Z,1.00
2022-08-22T14:04:36.132Z,0.80
2022-08-22T14:07:05.980Z,0.93
2022-08-22T14:09:57.129Z,0.70
2022-08-22T14:12:33.570Z,0.57
2022-08-22T14:15:24.899Z,0.70
2022-08-22T14:18:00.738Z,0.70
2022-08-22T14:20:33.481Z,0.88
2022-08-22T14:23:17.716Z,0.88
2022-08-22T14:25:44.958Z,0.60
2022-08-22T14:28:31.222Z,0.60
2022-08-22T14:31:08.321Z,0.80
2022-08-22T14:33:47.091Z,0.68
2022-08-22T14:36:23.979Z,0.70
2022-08-22T14:39:03.729Z,0.77
2022-08-22T14:41:52.429Z,0.60
2022-08-22T14:45:08.317Z,0.70
2022-08-22T14:47:54.245Z,1.00
2022-08-22T14:50:53.124Z,0.68
2022-08-22T14:53:20.001Z,0.60
2022-08-22T14:56:01.658Z,0.75
2022-08-22T14:58:34.969Z,0.70
2022-08-22T15:01:12.600Z,0.75
2022-08-22T15:03:43.866Z,1.15
2022-08-22T15:06:14.635Z,0.40
2022-08-22T15:08:49.833Z,0.77
2022-08-22T15:11:22.314Z,0.73
2022-08-22T15:14:00.900Z,1.10
2022-08-22T15:16:43.517Z,0.70
2022-08-22T15:19:36.644Z,0.60
2022-08-22T15:22:27.570Z,0.60
2022-08-22T15:25:07.209Z,0.68
2022-08-22T15:27:58.228Z,0.63
2022-08-22T15:31:03.456Z,0.60
2022-08-22T15:33:34.403Z,0.50
2022-08-22T15:36:12.790Z,0.50
2022-08-22T15:39:30.408Z,0.50
2022-08-22T15:41:58.785Z,0.90
2022-08-22T15:44:40.018Z,0.70
2022-08-22T15:47:39.570Z,0.40
2022-08-22T15:50:15.298Z,0.68
2022-08-22T15:53:11.709Z,0.45
2022-08-22T15:56:18.597Z,0.70
2022-08-22T15:58:51.509Z,0.70
2022-08-22T16:01:24.358Z,0.50
2022-08-22T16:04:07.079Z,0.82
2022-08-22T16:06:42.538Z,0.95
2022-08-22T16:09:29.003Z,0.90
2022-08-22T16:11:57.507Z,0.70
2022-08-22T16:14:47.404Z,0.80
2022-08-22T16:17:29.151Z,1.02
2022-08-22T16:20:09.108Z,0.73
2022-08-22T16:22:56.344Z,1.08
2022-08-22T16:25:45.326Z,0.63
2022-08-22T16:28:56.399Z,0.57
2022-08-22T16:31:34.190Z,0.60
2022-08-22T16:34:16.352Z,0.65
2022-08-22T16:37:04.780Z,0.65
2022-08-22T16:39:43.461Z,0.73
2022-08-22T16:42:13.330Z,0.60
2022-08-22T16:44:57.373Z,0.80
2022-08-22T16:47:42.169Z,0.63
2022-08-22T16:50:30.121Z,0.73
2022-08-22T16:53:09.986Z,0.75
2022-08-22T16:56:06.737Z,0.90
2022-08-22T16:59:19.599Z,0.70
2022-08-22T17:01:58.585Z,0.80
2022-08-22T17:04:40.749Z,0.80
2022-08-22T17:07:19.796Z,0.63
2022-08-22T17:10:26.848Z,0.60
2022-08-22T17:13:36.614Z,0.70
2022-08-22T17:16:19.778Z,0.70
2022-08-22T17:19:18.390Z,0.80
2022-08-22T17:22:10.960Z,0.93
2022-08-22T17:24:51.553Z,0.50
2022-08-22T17:27:34.885Z,0.90
2022-08-22T17:30:10.765Z,0.82
2022-08-22T17:33:07.394Z,0.85
2022-08-22T17:35:55.261Z,0.85
2022-08-22T17:38:53.405Z,0.60
2022-08-22T17:41:44.713Z,0.93
2022-08-22T17:44:34.380Z,0.82
2022-08-22T17:47:42.017Z,0.60
2022-08-22T17:50:27.347Z,0.70
2022-08-22T17:53:05.898Z,0.63
2022-08-22T17:55:54.320Z,1.10
2022-08-22T17:58:31.656Z,0.68
2022-08-22T18:01:21.609Z,1.10
2022-08-22T18:03:59.520Z,0.93
2022-08-22T18:06:36.121Z,1.20
2022-08-22T18:09:16.558Z,1.10
2022-08-22T18:11:52.602Z,0.80
2022-08-22T18:14:38.362Z,1.02
2022-08-22T18:17:27.050Z,0.90
2022-08-22T18:20:05.754Z,0.88
2022-08-22T18:22:38.924Z,0.98
2022-08-22T18:25:32.720Z,1.40
2022-08-22T18:28:20.006Z,1.80
2022-08-22T18:31:09.037Z,1.23
2022-08-22T18:34:00.948Z,1.50
2022-08-22T18:36:38.913Z,1.60
2022-08-22T18:39:19.109Z,1.20
2022-08-22T18:41:55.095Z,1.25
2022-08-22T18:44:34.251Z,1.13
2022-08-22T18:47:23.006Z,0.95
2022-08-22T18:49:54.345Z,1.60
2022-08-22T18:52:35.797Z,0.95
2022-08-22T18:55:41.588Z,1.52
2022-08-22T18:59:07.911Z,1.15
2022-08-22T19:02:12.293Z,1.00
2022-08-22T19:05:05.247Z,1.23
2022-08-22T19:08:00.901Z,1.30
2022-08-22T19:11:07.928Z,1.35
2022-08-22T19:13:43.448Z,1.35
2022-08-22T19:16:52.834Z,1.10
2022-08-22T19:20:17.805Z,1.13
2022-08-22T19:22:45.337Z,1.40
2022-08-22T19:25:26.314Z,1.33
2022-08-22T19:28:14.168Z,1.17
2022-08-22T19:30:50.808Z,1.17
2022-08-22T19:33:27.653Z,1.65
2022-08-22T19:36:12.953Z,1.15
2022-08-22T19:39:02.748Z,1.50
2022-08-22T19:41:56.834Z,1.33
2022-08-22T19:44:23.519Z,1.07
2022-08-22T19:47:08.012Z,1.05
2022-08-22T19:49:38.956Z,1.20
2022-08-22T19:52:16.573Z,1.23
2022-08-22T19:55:01.252Z,0.93
2022-08-22T20:00:55.477Z,1.70
2022-08-22T20:03:50.322Z,1.25
2022-08-22T20:06:43.902Z,1.20
2022-08-22T20:09:45.682Z,1.27
2022-08-22T20:12:33.819Z,1.10
2022-08-22T20:15:16.975Z,1.30
2022-08-22T20:17:44.487Z,1.30
2022-08-22T20:20:35.942Z,1.67
2022-08-22T20:23:13.798Z,1.30
2022-08-22T20:25:50.199Z,1.15
2022-08-22T20:28:45.795Z,1.45
2022-08-22T20:31:21.978Z,1.42
2022-08-22T20:33:56.455Z,1.20
2022-08-22T20:36:27.705Z,1.40
2022-08-22T20:39:02.137Z,1.35
2022-08-22T20:41:41.938Z,0.90
2022-08-22T20:44:30.881Z,1.38
2022-08-22T20:47:22.235Z,1.23
2022-08-22T20:49:54.862Z,1.35
2022-08-22T20:52:31.664Z,1.20
2022-08-22T20:55:31.521Z,1.30
2022-08-22T20:58:05.448Z,1.45
2022-08-22T21:00:43.853Z,1.00
2022-08-22T21:03:37.108Z,1.20
2022-08-22T21:06:20.979Z,0.98
2022-08-22T21:09:08.847Z,1.13
2022-08-22T21:11:41.438Z,1.20
2022-08-22T21:14:44.443Z,1.42
2022-08-22T21:17:29.142Z,1.40
2022-08-22T21:20:22.256Z,1.33
2022-08-22T21:22:51.128Z,1.17
2022-08-22T21:25:18.083Z,1.40
2022-08-22T21:27:48.032Z,1.00
2022-08-22T21:30:25.821Z,1.48
2022-08-22T21:32:56.136Z,1.58
2022-08-22T21:35:31.096Z,1.40
2022-08-22T21:37:59.895Z,1.63
2022-08-22T21:40:36.007Z,1.35
2022-08-22T21:43:14.042Z,1.13
2022-08-22T21:45:44.103Z,1.30
2022-08-22T21:48:34.188Z,1.63
2022-08-22T21:51:30.689Z,0.90
2022-08-22T21:54:25.572Z,0.93
2022-08-22T21:56:55.693Z,1.35
2022-08-22T21:59:51.954Z,1.25
2022-08-22T22:02:37.525Z,1.40
2022-08-22T22:05:11.662Z,1.40
2022-08-22T22:07:45.061Z,1.60
2022-08-22T22:10:15.985Z,1.20
2022-08-22T22:12:45.523Z,1.50
2022-08-22T22:15:17.765Z,1.27
2022-08-22T22:17:44.928Z,1.40
2022-08-22T22:20:13.656Z,1.13
2022-08-22T22:22:46.029Z,1.10
2022-08-22T22:25:41.291Z,1.00
2022-08-22T22:28:22.962Z,1.27
2022-08-22T22:30:53.170Z,1.38
2022-08-22T22:33:46.434Z,1.35
2022-08-22T22:36:20.336Z,1.35
2022-08-22T22:38:47.445Z,1.67
2022-08-22T22:41:14.270Z,1.13
2022-08-22T22:43:42.220Z,1.30
2022-08-22T22:46:09.118Z,1.17
2022-08-22T22:48:36.004Z,1.33
2022-08-22T22:51:12.296Z,1.10
2022-08-22T22:53:43.081Z,1.15
2022-08-22T22:56:21.469Z,1.10
2022-08-22T22:58:50.230Z,1.20
2022-08-22T23:01:26.845Z,1.08
2022-08-22T23:03:59.444Z,1.35
2022-08-22T23:06:32.708Z,1.20
2022-08-22T23:08:59.564Z,1.40
2022-08-22T23:11:29.799Z,1.10
2022-08-22T23:13:57.217Z,1.13
2022-08-22T23:16:27.933Z,1.50
2022-08-22T23:18:55.268Z,1.02
2022-08-22T23:21:24.968Z,1.17
2022-08-22T23:23:55.563Z,1.17
2022-08-22T23:26:22.565Z,1.17
2022-08-22T23:28:49.508Z,0.73
2022-08-22T23:31:26.880Z,1.20
2022-08-22T23:33:54.716Z,1.55
2022-08-22T23:36:23.444Z,1.10
2022-08-22T23:38:51.992Z,1.55
2022-08-22T23:41:21.546Z,1.35
2022-08-22T23:43:52.028Z,1.35
2022-08-22T23:46:22.581Z,1.30
2022-08-22T23:48:49.422Z,1.23
2022-08-22T23:51:22.870Z,1.17
2022-08-22T23:53:51.750Z,0.90
2022-08-22T23:56:27.125Z,1.40
2022-08-22T23:58:54.455Z,1.42
